Archival Weather

Sydney Intl

Sydney, Australia (YSSY)

Report from: Friday, September 22, 2023 5:30 AM AEST
Current time: Sunday, February 25, 2024 2:15 AM AEDT

Current weather – Weather history – Daily summaries
Weather forecast

Present weatherLight rain showers
Temperature12.0°C (53.6°F)
Dew point10.0°C (50.0°F)
Winds 12 kts (6.2 m/s, 13.8 mph) West-Southwest (250°)
Visibility6.2 mi. (10 km)
Clouds Few clouds 3,000 ft. (914 m)
Altimeter30.33 in.Hg (1027 mB)
Relative humidity88 %
Density altitude-647 ft. (-197 m)
Flight conditions Visual Meteorological Conditions
Raw dataYSSY 211930Z 25012KT 9999 -SHRA FEW030 12/10 Q1027 RF00.0/011.4
An error has occurred. This application may no longer respond until reloaded. Reload 🗙